Аэропорт: Белгород . Белгород

ICAO: UUOB

METAR:
2018/05/20 23:00
UUOB 202300Z 35003MPS 6000 BKN028 14/14 Q1015 R29/290055 NOSIG
METAR:
Информация по данной станции не доступна